createdAt,value
2019-01-09T00:01:43.260Z,98348.19
2019-01-09T00:04:09.573Z,98354.66
2019-01-09T00:06:35.880Z,98351.12
2019-01-09T00:09:06.099Z,98356.84
2019-01-09T00:11:32.629Z,98354.19
2019-01-09T00:13:59.246Z,98371.44
2019-01-09T00:16:25.808Z,98343.52
2019-01-09T00:18:52.585Z,98352.51
2019-01-09T00:21:18.889Z,98358.99
2019-01-09T00:23:45.491Z,98352.06
2019-01-09T00:26:12.795Z,98361.24
2019-01-09T00:28:39.241Z,98367.36
2019-01-09T00:31:05.661Z,98367.08
2019-01-09T00:33:32.260Z,98369.41
2019-01-09T00:35:58.830Z,98362.64
2019-01-09T00:38:25.153Z,98374.45
2019-01-09T00:40:51.476Z,98364.13
2019-01-09T00:43:17.817Z,98362.37
2019-01-09T00:45:44.157Z,98375.95
2019-01-09T00:48:10.548Z,98366.80
2019-01-09T00:50:37.123Z,98368.67
2019-01-09T00:53:03.803Z,98365.27
2019-01-09T00:55:30.248Z,98360.95
2019-01-09T00:57:56.580Z,98358.44
2019-01-09T01:00:23.102Z,98370.07
2019-01-09T01:03:03.625Z,98357.84
2019-01-09T01:05:47.647Z,98371.83
2019-01-09T01:08:34.075Z,98368.80
2019-01-09T01:11:32.871Z,98381.21
2019-01-09T01:14:22.299Z,98380.13
2019-01-09T01:17:21.295Z,98374.04
2019-01-09T01:20:20.045Z,98388.89
2019-01-09T01:23:06.369Z,98383.61
2019-01-09T01:25:47.652Z,98372.23
2019-01-09T01:28:40.266Z,98363.80
2019-01-09T01:31:30.706Z,98387.66
2019-01-09T01:34:08.456Z,98372.31
2019-01-09T01:37:01.707Z,98371.48
2019-01-09T01:39:48.798Z,98372.28
2019-01-09T01:42:48.103Z,98384.93
2019-01-09T01:45:28.536Z,98380.22
2019-01-09T01:48:39.013Z,98384.66
2019-01-09T01:51:37.583Z,98391.08
2019-01-09T01:54:31.813Z,98394.77
2019-01-09T01:57:06.604Z,98386.66
2019-01-09T01:59:41.608Z,98390.31
2019-01-09T02:02:31.838Z,98396.77
2019-01-09T02:05:09.618Z,98377.14
2019-01-09T02:08:11.720Z,98388.47
2019-01-09T02:10:59.998Z,98386.44
2019-01-09T02:13:35.226Z,98390.27
2019-01-09T02:16:29.506Z,98357.03
2019-01-09T02:19:13.116Z,98392.94
2019-01-09T02:21:45.241Z,98399.31
2019-01-09T02:24:22.813Z,98386.18
2019-01-09T02:27:21.329Z,98392.78
2019-01-09T02:30:26.267Z,98394.08
2019-01-09T02:32:52.873Z,98394.92
2019-01-09T02:35:19.477Z,98406.09
2019-01-09T02:37:45.784Z,98397.52
2019-01-09T02:40:12.131Z,98391.59
2019-01-09T02:42:38.422Z,98398.37
2019-01-09T02:45:05.219Z,98409.45
2019-01-09T02:47:31.910Z,98399.92
2019-01-09T02:49:58.513Z,98401.50
2019-01-09T02:52:25.129Z,98396.77
2019-01-09T02:54:51.706Z,98397.60
2019-01-09T02:57:17.999Z,98399.89
2019-01-09T02:59:44.591Z,98388.81
2019-01-09T03:02:11.824Z,98381.34
2019-01-09T03:04:38.123Z,98389.17
2019-01-09T03:07:04.441Z,98391.34
2019-01-09T03:09:30.991Z,98385.52
2019-01-09T03:11:57.608Z,98393.16
2019-01-09T03:14:23.924Z,98396.48
2019-01-09T03:16:50.272Z,98395.61
2019-01-09T03:19:16.603Z,98384.46
2019-01-09T03:21:43.203Z,98390.48
2019-01-09T03:24:09.544Z,98393.04
2019-01-09T03:26:36.123Z,98404.00
2019-01-09T03:29:02.559Z,98403.38
2019-01-09T03:31:28.876Z,98402.45
2019-01-09T03:33:55.205Z,98396.16
2019-01-09T03:36:21.538Z,98396.19
2019-01-09T03:38:47.861Z,98382.57
2019-01-09T03:41:14.438Z,98393.37
2019-01-09T03:43:41.022Z,98394.70
2019-01-09T03:46:07.549Z,98399.36
2019-01-09T03:48:33.879Z,98400.87
2019-01-09T03:51:00.232Z,98397.91
2019-01-09T03:53:26.780Z,98414.16
2019-01-09T03:55:53.135Z,98397.38
2019-01-09T03:58:19.692Z,98406.20
2019-01-09T04:00:46.038Z,98411.77
2019-01-09T04:03:12.366Z,98400.41
2019-01-09T04:05:38.696Z,98409.52
2019-01-09T04:08:05.278Z,98413.41
2019-01-09T04:10:31.842Z,98418.25
2019-01-09T04:12:58.447Z,98408.16
2019-01-09T04:15:25.026Z,98413.88
2019-01-09T04:17:51.628Z,98415.55
2019-01-09T04:20:17.946Z,98410.20
2019-01-09T04:22:44.271Z,98396.26
2019-01-09T04:25:10.644Z,98405.95
2019-01-09T04:27:36.971Z,98416.00
2019-01-09T04:30:05.592Z,98396.25
2019-01-09T04:32:32.301Z,98420.30
2019-01-09T04:34:58.621Z,98415.05
2019-01-09T04:37:24.939Z,98413.61
2019-01-09T04:39:51.482Z,98408.06
2019-01-09T04:42:17.825Z,98436.02
2019-01-09T04:44:44.146Z,98406.25
2019-01-09T04:47:10.482Z,98401.47
2019-01-09T04:49:37.063Z,98420.70
2019-01-09T04:52:03.383Z,98416.04
2019-01-09T04:54:30.098Z,98427.69
2019-01-09T04:56:56.746Z,98441.73
2019-01-09T04:59:23.367Z,98440.73
2019-01-09T05:01:50.047Z,98420.17
2019-01-09T05:04:16.664Z,98422.13
2019-01-09T05:06:43.012Z,98442.86
2019-01-09T05:09:09.599Z,98434.27
2019-01-09T05:11:35.938Z,98434.98
2019-01-09T05:14:02.238Z,98429.56
2019-01-09T05:16:28.940Z,98426.99
2019-01-09T05:18:55.517Z,98450.14
2019-01-09T05:21:21.870Z,98444.44
2019-01-09T05:23:48.412Z,98448.19
2019-01-09T05:26:15.048Z,98443.49
2019-01-09T05:28:41.490Z,98443.03
2019-01-09T05:31:08.909Z,98447.82
2019-01-09T05:33:35.297Z,98446.36
2019-01-09T05:36:01.882Z,98445.44
2019-01-09T05:38:28.245Z,98468.02
2019-01-09T05:40:54.675Z,98455.09
2019-01-09T05:43:21.275Z,98448.54
2019-01-09T05:45:47.652Z,98464.14
2019-01-09T05:48:14.084Z,98460.18
2019-01-09T05:50:40.414Z,98461.92
2019-01-09T05:53:06.773Z,98462.75
2019-01-09T05:55:33.068Z,98463.59
2019-01-09T05:57:59.382Z,98477.88
2019-01-09T06:00:25.928Z,98484.08
2019-01-09T06:02:52.513Z,98472.80
2019-01-09T06:05:19.114Z,98483.50
2019-01-09T06:07:45.471Z,98477.67
2019-01-09T06:10:11.774Z,98474.38
2019-01-09T06:12:39.393Z,98482.33
2019-01-09T06:15:05.826Z,98482.04
2019-01-09T06:17:32.150Z,98491.35
2019-01-09T06:19:58.481Z,98489.41
2019-01-09T06:22:25.068Z,98501.69
2019-01-09T06:24:51.860Z,98493.63
2019-01-09T06:27:18.486Z,98502.52
2019-01-09T06:29:44.772Z,98494.66
2019-01-09T06:32:11.457Z,98500.37
2019-01-09T06:34:37.809Z,98503.04
2019-01-09T06:37:04.969Z,98512.56
2019-01-09T06:39:32.216Z,98509.70
2019-01-09T06:41:58.558Z,98506.19
2019-01-09T06:44:24.882Z,98514.68
2019-01-09T06:46:51.209Z,98510.81
2019-01-09T06:49:17.515Z,98519.65
2019-01-09T06:51:44.075Z,98553.09
2019-01-09T06:54:10.426Z,98528.06
2019-01-09T06:56:36.945Z,98530.16
2019-01-09T06:59:03.783Z,98521.69
2019-01-09T07:01:30.178Z,98538.10
2019-01-09T07:03:56.593Z,98542.42
2019-01-09T07:06:22.901Z,98551.36
2019-01-09T07:08:49.364Z,98550.07
2019-01-09T07:11:15.937Z,98544.45
2019-01-09T07:13:42.252Z,98547.69
2019-01-09T07:16:08.838Z,98552.85
2019-01-09T07:18:35.136Z,98548.04
2019-01-09T07:21:01.449Z,98555.88
2019-01-09T07:23:28.035Z,98552.30
2019-01-09T07:25:54.601Z,98569.00
2019-01-09T07:28:21.210Z,98563.83
2019-01-09T07:30:47.871Z,98578.95
2019-01-09T07:33:14.467Z,98578.30
2019-01-09T07:35:40.782Z,98583.38
2019-01-09T07:38:07.370Z,98509.95
2019-01-09T07:40:33.681Z,98582.38
2019-01-09T07:43:00.050Z,98585.59
2019-01-09T07:45:26.350Z,98591.78
2019-01-09T07:47:52.695Z,98589.55
2019-01-09T07:50:19.198Z,98593.72
2019-01-09T07:52:45.511Z,98589.83
2019-01-09T07:55:11.882Z,98590.41
2019-01-09T07:57:38.292Z,98592.31
2019-01-09T08:00:09.361Z,98602.30
2019-01-09T08:02:35.742Z,98596.47
2019-01-09T08:05:02.104Z,98595.47
2019-01-09T08:07:28.669Z,98602.84
2019-01-09T08:09:55.006Z,98617.42
2019-01-09T08:12:21.591Z,98601.27
2019-01-09T08:14:47.903Z,98605.14
2019-01-09T08:17:14.484Z,98611.79
2019-01-09T08:19:40.799Z,98600.63
2019-01-09T08:22:07.429Z,98610.50
2019-01-09T08:24:34.098Z,98610.41
2019-01-09T08:27:00.786Z,98615.11
2019-01-09T08:29:27.372Z,98616.95
2019-01-09T08:31:53.729Z,98617.88
2019-01-09T08:34:20.259Z,98624.99
2019-01-09T08:36:46.855Z,98625.09
2019-01-09T08:39:13.189Z,98639.74
2019-01-09T08:41:39.696Z,98630.72
2019-01-09T08:44:06.304Z,98649.16
2019-01-09T08:46:32.611Z,98636.43
2019-01-09T08:48:58.918Z,98647.33
2019-01-09T08:51:25.231Z,98646.50
2019-01-09T08:53:51.824Z,98639.81
2019-01-09T08:56:18.156Z,98648.52
2019-01-09T08:58:44.762Z,98654.22
2019-01-09T09:01:11.362Z,98654.50
2019-01-09T09:03:38.769Z,98660.69
2019-01-09T09:06:05.331Z,98678.84
2019-01-09T09:08:32.170Z,98660.68
2019-01-09T09:10:58.875Z,98677.13
2019-01-09T09:13:33.857Z,98669.14
2019-01-09T09:16:00.170Z,98667.16
2019-01-09T09:18:26.748Z,98669.86
2019-01-09T09:20:53.095Z,98674.09
2019-01-09T09:23:19.428Z,98677.23
2019-01-09T09:25:45.823Z,98689.14
2019-01-09T09:28:12.371Z,98684.08
2019-01-09T09:30:38.705Z,98703.49
2019-01-09T09:33:05.031Z,98670.19
2019-01-09T09:35:31.470Z,98670.47
2019-01-09T09:37:57.869Z,98670.39
2019-01-09T09:40:24.531Z,98681.38
2019-01-09T09:42:50.866Z,98683.77
2019-01-09T09:45:17.165Z,98671.22
2019-01-09T09:47:43.493Z,98678.97
2019-01-09T09:50:13.801Z,98673.25
2019-01-09T09:52:40.411Z,98676.78
2019-01-09T09:55:12.774Z,98668.36
2019-01-09T09:57:35.615Z,98670.14
2019-01-09T10:00:05.740Z,98686.56
2019-01-09T10:02:32.420Z,98686.34
2019-01-09T10:04:58.927Z,98684.41
2019-01-09T10:07:25.335Z,98688.38
2019-01-09T10:09:51.916Z,98683.20
2019-01-09T10:12:18.493Z,98688.56
2019-01-09T10:14:45.041Z,98685.89
2019-01-09T10:17:11.392Z,98691.52
2019-01-09T10:19:37.916Z,98694.30
2019-01-09T10:22:04.507Z,98686.19
2019-01-09T10:24:30.807Z,98687.83
2019-01-09T10:26:57.134Z,98697.26
2019-01-09T10:29:23.707Z,98696.79
2019-01-09T10:31:50.364Z,98692.55
2019-01-09T10:34:16.761Z,98695.71
2019-01-09T10:36:43.351Z,98702.33
2019-01-09T10:39:09.677Z,98694.09
2019-01-09T10:41:36.302Z,98703.42
2019-01-09T10:44:02.954Z,98708.76
2019-01-09T10:46:29.579Z,98702.20
2019-01-09T10:48:55.889Z,98715.84
2019-01-09T10:51:22.421Z,98716.07
2019-01-09T10:53:49.052Z,98714.78
2019-01-09T10:56:15.479Z,98707.59
2019-01-09T10:58:42.149Z,98724.30
2019-01-09T11:01:08.717Z,98724.17
2019-01-09T11:03:35.022Z,98702.69
2019-01-09T11:06:01.782Z,98706.31
2019-01-09T11:08:28.099Z,98634.00
2019-01-09T11:10:54.400Z,98704.37
2019-01-09T11:13:22.647Z,98707.42
2019-01-09T11:15:49.188Z,98697.91
2019-01-09T11:18:15.535Z,98724.77
2019-01-09T11:20:41.848Z,98716.07
2019-01-09T11:23:08.257Z,98695.92
2019-01-09T11:25:34.579Z,98733.47
2019-01-09T11:28:00.984Z,98700.36
2019-01-09T11:30:27.379Z,98711.28
2019-01-09T11:32:53.717Z,98707.42
2019-01-09T11:35:22.648Z,98721.84
2019-01-09T11:37:49.324Z,98724.31
2019-01-09T11:40:17.831Z,98700.19
2019-01-09T11:42:44.540Z,98716.59
2019-01-09T11:45:14.640Z,98713.78
2019-01-09T11:47:40.990Z,98731.38
2019-01-09T11:50:10.493Z,98724.31
2019-01-09T11:52:36.804Z,98718.56
2019-01-09T11:55:07.546Z,98734.17
2019-01-09T11:57:33.837Z,98727.36
2019-01-09T12:00:00.278Z,98731.40
2019-01-09T12:02:26.837Z,98733.95
2019-01-09T12:04:53.190Z,98738.90
2019-01-09T12:07:19.509Z,98739.73
2019-01-09T12:09:46.150Z,98737.83
2019-01-09T12:12:12.469Z,98749.52
2019-01-09T12:14:39.027Z,98743.61
2019-01-09T12:17:05.582Z,98739.16
2019-01-09T12:19:31.903Z,98760.84
2019-01-09T12:21:58.258Z,98746.78
2019-01-09T12:24:24.579Z,98762.66
2019-01-09T12:26:51.168Z,98754.16
2019-01-09T12:29:17.477Z,98756.36
2019-01-09T12:31:44.066Z,98763.73
2019-01-09T12:34:10.381Z,98761.39
2019-01-09T12:36:36.689Z,98775.04
2019-01-09T12:39:13.032Z,98762.36
2019-01-09T12:41:33.671Z,98780.43
2019-01-09T12:43:59.927Z,98773.84
2019-01-09T12:46:27.012Z,98778.08
2019-01-09T12:48:53.620Z,98788.89
2019-01-09T12:51:20.202Z,98778.75
2019-01-09T12:53:46.787Z,98789.08
2019-01-09T12:56:13.504Z,98787.98
2019-01-09T12:58:39.807Z,98789.75
2019-01-09T13:01:06.169Z,98792.60
2019-01-09T13:03:32.486Z,98802.87
2019-01-09T13:05:58.832Z,98806.93
2019-01-09T13:08:25.186Z,98781.83
2019-01-09T13:10:51.533Z,98807.13
2019-01-09T13:13:17.837Z,98819.23
2019-01-09T13:15:44.424Z,98814.33
2019-01-09T13:18:10.985Z,98825.58
2019-01-09T13:20:37.305Z,98827.32
2019-01-09T13:23:03.641Z,98833.86
2019-01-09T13:25:29.959Z,98839.94
2019-01-09T13:27:56.549Z,98831.58
2019-01-09T13:30:22.846Z,98837.92
2019-01-09T13:32:49.172Z,98833.74
2019-01-09T13:35:17.129Z,98835.63
2019-01-09T13:37:43.642Z,98838.48
2019-01-09T13:40:13.857Z,98846.77
2019-01-09T13:42:40.189Z,98848.86
2019-01-09T13:45:10.228Z,98849.77
2019-01-09T13:47:38.497Z,98844.80
2019-01-09T13:50:09.716Z,98852.88
2019-01-09T13:52:36.104Z,98856.38
2019-01-09T13:55:05.106Z,98844.60
2019-01-09T13:57:31.416Z,98847.87
2019-01-09T13:59:57.875Z,98855.89
2019-01-09T14:02:24.206Z,98859.11
2019-01-09T14:04:50.777Z,98858.47
2019-01-09T14:07:17.401Z,98883.54
2019-01-09T14:09:43.718Z,98869.22
2019-01-09T14:12:10.062Z,98868.27
2019-01-09T14:14:36.592Z,98865.38
2019-01-09T14:17:04.878Z,98862.42
2019-01-09T14:19:31.558Z,98882.59
2019-01-09T14:21:58.198Z,98893.19
2019-01-09T14:24:25.000Z,98885.59
2019-01-09T14:26:51.306Z,98891.33
2019-01-09T14:29:17.693Z,98894.63
2019-01-09T14:31:44.257Z,98888.97
2019-01-09T14:34:11.906Z,98896.46
2019-01-09T14:36:39.026Z,98895.93
2019-01-09T14:39:05.818Z,98905.43
2019-01-09T14:41:32.352Z,98912.53
2019-01-09T14:43:58.691Z,98915.25
2019-01-09T14:46:25.781Z,98918.91
2019-01-09T14:48:52.451Z,98928.78
2019-01-09T14:51:19.022Z,98940.45
2019-01-09T14:53:46.930Z,98933.59
2019-01-09T14:56:14.445Z,98946.41
2019-01-09T14:58:41.232Z,98939.98
2019-01-09T15:01:07.689Z,98946.03
2019-01-09T15:03:34.124Z,98957.00
2019-01-09T15:06:00.491Z,98946.61
2019-01-09T15:08:27.067Z,98950.04
2019-01-09T15:10:53.529Z,98951.20
2019-01-09T15:13:20.234Z,98971.74
2019-01-09T15:15:46.677Z,98957.20
2019-01-09T15:18:13.305Z,98965.44
2019-01-09T15:20:39.701Z,98965.71
2019-01-09T15:23:06.316Z,98972.39
2019-01-09T15:25:32.873Z,98956.22
2019-01-09T15:27:59.515Z,98979.33
2019-01-09T15:30:28.711Z,98978.42
2019-01-09T15:32:55.250Z,98977.63
2019-01-09T15:35:21.841Z,98973.41
2019-01-09T15:37:48.186Z,98980.63
2019-01-09T15:40:18.495Z,98981.36
2019-01-09T15:42:45.196Z,98986.71
2019-01-09T15:45:12.801Z,98988.20
2019-01-09T15:47:39.155Z,98987.84
2019-01-09T15:50:16.120Z,98998.20
2019-01-09T15:52:42.911Z,98995.47
2019-01-09T15:55:15.126Z,99003.34
2019-01-09T15:57:42.668Z,99008.69
2019-01-09T16:00:24.830Z,99000.66
2019-01-09T16:02:51.309Z,99013.83
2019-01-09T16:05:17.778Z,99011.94
2019-01-09T16:07:44.121Z,99021.18
2019-01-09T16:10:16.493Z,99026.55
2019-01-09T16:12:43.351Z,99029.64
2019-01-09T16:15:13.860Z,99041.98
2019-01-09T16:17:41.618Z,99037.59
2019-01-09T16:20:16.934Z,99042.89
2019-01-09T16:22:41.150Z,99048.00
2019-01-09T16:25:11.818Z,99033.81
2019-01-09T16:27:38.535Z,99042.53
2019-01-09T16:30:34.056Z,99043.11
2019-01-09T16:32:57.015Z,99058.27
2019-01-09T16:35:23.398Z,99055.88
2019-01-09T16:37:49.800Z,99056.92
2019-01-09T16:40:23.360Z,99053.61
2019-01-09T16:42:44.760Z,99053.30
2019-01-09T16:45:13.200Z,99053.61
2019-01-09T16:47:39.844Z,99063.77
2019-01-09T16:50:11.875Z,99062.41
2019-01-09T16:52:38.438Z,99068.80
2019-01-09T16:55:07.632Z,99076.36
2019-01-09T16:57:34.353Z,99082.41
2019-01-09T17:00:01.010Z,99071.13
2019-01-09T17:02:27.680Z,99075.26
2019-01-09T17:04:54.018Z,99081.32
2019-01-09T17:07:20.837Z,99083.33
2019-01-09T17:09:47.215Z,99088.57
2019-01-09T17:12:13.847Z,99088.50
2019-01-09T17:14:40.212Z,99100.89
2019-01-09T17:17:06.829Z,99092.69
2019-01-09T17:19:33.287Z,99106.97
2019-01-09T17:21:59.707Z,99113.67
2019-01-09T17:24:26.039Z,99106.97
2019-01-09T17:26:52.658Z,99119.49
2019-01-09T17:29:19.591Z,99122.60
2019-01-09T17:31:45.917Z,99125.30
2019-01-09T17:34:12.666Z,99127.91
2019-01-09T17:36:39.056Z,99148.65
2019-01-09T17:39:06.514Z,99139.01
2019-01-09T17:41:32.949Z,99149.34
2019-01-09T17:43:59.561Z,99145.34
2019-01-09T17:46:25.998Z,99140.37
2019-01-09T17:48:52.403Z,99145.58
2019-01-09T17:51:18.860Z,99143.06
2019-01-09T17:53:45.456Z,99148.83
2019-01-09T17:56:12.103Z,99159.86
2019-01-09T17:58:38.676Z,99152.42
2019-01-09T18:01:05.205Z,99155.14
2019-01-09T18:03:31.914Z,99177.70
2019-01-09T18:05:58.320Z,99178.55
2019-01-09T18:08:25.128Z,99172.91
2019-01-09T18:10:51.998Z,99181.72
2019-01-09T18:13:18.402Z,99178.70
2019-01-09T18:15:46.878Z,99187.13
2019-01-09T18:18:13.313Z,99186.50
2019-01-09T18:20:39.941Z,99209.32
2019-01-09T18:23:06.662Z,99194.12
2019-01-09T18:25:33.342Z,99195.05
2019-01-09T18:27:59.741Z,99205.07
2019-01-09T18:30:31.553Z,99199.83
2019-01-09T18:33:08.834Z,99207.19
2019-01-09T18:36:04.729Z,99207.79
2019-01-09T18:38:42.706Z,99216.52
2019-01-09T18:41:20.964Z,99225.78
2019-01-09T18:43:56.164Z,99227.16
2019-01-09T18:46:33.684Z,99223.61
2019-01-09T18:49:40.507Z,99231.81
2019-01-09T18:52:24.564Z,99236.59
2019-01-09T18:54:51.012Z,99243.05
2019-01-09T18:57:17.742Z,99252.87
2019-01-09T18:59:44.636Z,99263.42
2019-01-09T19:02:11.470Z,99258.77
2019-01-09T19:04:39.993Z,99265.14
2019-01-09T19:07:06.380Z,99264.45
2019-01-09T19:09:32.901Z,99275.41
2019-01-09T19:12:20.380Z,99276.94
2019-01-09T19:14:57.539Z,99276.55
2019-01-09T19:17:34.477Z,99286.27
2019-01-09T19:20:04.338Z,99293.84
2019-01-09T19:22:31.150Z,99290.45
2019-01-09T19:24:57.774Z,99285.51
2019-01-09T19:27:28.729Z,99304.00
2019-01-09T19:29:56.365Z,99298.88
2019-01-09T19:32:23.581Z,99307.98
2019-01-09T19:35:03.209Z,99324.86
2019-01-09T19:37:31.930Z,99312.92
2019-01-09T19:40:08.765Z,99317.60
2019-01-09T19:42:35.257Z,99323.37
2019-01-09T19:45:03.647Z,99331.27
2019-01-09T19:47:31.012Z,99319.63
2019-01-09T19:49:57.871Z,99349.73
2019-01-09T19:52:25.768Z,99339.11
2019-01-09T19:54:52.579Z,99345.12
2019-01-09T19:57:19.324Z,99345.94
2019-01-09T19:59:45.707Z,99346.86
2019-01-09T20:02:12.332Z,99350.22
2019-01-09T20:04:39.340Z,99358.66
2019-01-09T20:07:06.003Z,99355.55
2019-01-09T20:09:32.410Z,99348.17
2019-01-09T20:12:06.472Z,99368.17
2019-01-09T20:14:48.545Z,99369.39
2019-01-09T20:17:16.137Z,99375.69
2019-01-09T20:19:42.965Z,99380.01
2019-01-09T20:22:09.650Z,99376.61
2019-01-09T20:24:35.982Z,99382.70
2019-01-09T20:27:02.298Z,99384.97
2019-01-09T20:29:29.126Z,99390.61
2019-01-09T20:31:56.593Z,99401.34
2019-01-09T20:34:22.997Z,99398.82
2019-01-09T20:36:49.493Z,99397.77
2019-01-09T20:39:15.934Z,99406.64
2019-01-09T20:41:42.662Z,99402.23
2019-01-09T20:44:09.414Z,99411.06
2019-01-09T20:46:35.770Z,99415.24
2019-01-09T20:49:02.313Z,99418.38
2019-01-09T20:51:28.846Z,99427.97
2019-01-09T20:53:55.468Z,99430.24
2019-01-09T20:56:22.010Z,99435.27
2019-01-09T20:58:48.462Z,99439.98
2019-01-09T21:01:15.197Z,99441.72
2019-01-09T21:03:41.760Z,99448.64
2019-01-09T21:06:08.335Z,99450.11
2019-01-09T21:08:34.676Z,99455.20
2019-01-09T21:11:01.292Z,99456.17
2019-01-09T21:13:28.165Z,99461.36
2019-01-09T21:15:54.616Z,99472.30
2019-01-09T21:18:21.031Z,99469.77
2019-01-09T21:20:47.642Z,99472.81
2019-01-09T21:23:13.978Z,99470.05
2019-01-09T21:25:40.317Z,99473.36
2019-01-09T21:28:06.994Z,99477.77
2019-01-09T21:30:33.411Z,99484.32
2019-01-09T21:33:00.043Z,99482.80
2019-01-09T21:35:26.892Z,99492.48
2019-01-09T21:37:53.322Z,99493.32
2019-01-09T21:40:26.211Z,99504.73
2019-01-09T21:42:52.803Z,99502.98
2019-01-09T21:45:19.158Z,99507.01
2019-01-09T21:47:45.933Z,99509.41
2019-01-09T21:50:21.091Z,99509.69
2019-01-09T21:52:47.802Z,99520.64
2019-01-09T21:55:15.375Z,99519.34
2019-01-09T21:57:42.205Z,99516.69
2019-01-09T22:00:23.762Z,99526.66
2019-01-09T22:02:50.438Z,99530.63
2019-01-09T22:05:18.554Z,99535.27
2019-01-09T22:07:46.391Z,99535.97
2019-01-09T22:10:18.201Z,99548.98
2019-01-09T22:12:45.027Z,99551.17
2019-01-09T22:15:13.782Z,99559.45
2019-01-09T22:17:40.569Z,99563.55
2019-01-09T22:20:12.881Z,99568.14
2019-01-09T22:22:39.582Z,99565.03
2019-01-09T22:25:09.577Z,99565.59
2019-01-09T22:27:36.373Z,99560.32
2019-01-09T22:30:11.632Z,99564.55
2019-01-09T22:32:38.238Z,99570.50
2019-01-09T22:35:05.611Z,99575.69
2019-01-09T22:37:32.006Z,99574.39
2019-01-09T22:39:58.364Z,99581.85
2019-01-09T22:42:24.682Z,99581.77
2019-01-09T22:44:51.053Z,99583.80
2019-01-09T22:47:17.471Z,99588.23
2019-01-09T22:49:43.895Z,99588.05
2019-01-09T22:52:10.235Z,99591.52
2019-01-09T22:54:38.971Z,99590.22
2019-01-09T22:57:05.304Z,99587.20
2019-01-09T22:59:31.611Z,99592.66
2019-01-09T23:01:57.929Z,99593.43
2019-01-09T23:04:24.351Z,99603.45
2019-01-09T23:06:51.052Z,99606.16
2019-01-09T23:09:17.434Z,99609.66
2019-01-09T23:11:43.944Z,99606.12
2019-01-09T23:14:10.307Z,99614.30
2019-01-09T23:16:36.914Z,99614.30
2019-01-09T23:19:03.360Z,99622.60
2019-01-09T23:21:29.685Z,99617.48
2019-01-09T23:23:56.009Z,99626.21
2019-01-09T23:26:22.695Z,99632.84
2019-01-09T23:28:49.312Z,99635.08
2019-01-09T23:31:15.838Z,99631.20
2019-01-09T23:33:42.165Z,99637.95
2019-01-09T23:36:08.600Z,99640.40
2019-01-09T23:38:35.041Z,99646.81
2019-01-09T23:41:01.374Z,99647.27
2019-01-09T23:43:27.953Z,99647.03
2019-01-09T23:45:54.379Z,99642.81
2019-01-09T23:48:20.779Z,99654.59
2019-01-09T23:50:47.135Z,99649.66
2019-01-09T23:53:13.763Z,99656.11
2019-01-09T23:55:40.587Z,99656.89
2019-01-09T23:58:06.917Z,99664.52
